Time;durP1;ratioP1;P1;durP2;ratioP2;P2;SDS_P1;SDS_P2;PMS_P1;PMS_P2;Temp;Humidity;BMP_temperature;BMP_pressure;BME280_temperature;BME280_humidity;BME280_pressure;Samples;Min_cycle;Max_cycle;Signal;HPM_P1;HPM_P2
2023/01/30 00:01:41;;;;;;;63.43;29.13;;;;;;;12.90;100.00;101587.94;5055013;28;20033;-51
2023/01/30 00:04:07;;;;;;;61.78;28.45;;;;;;;13.44;100.00;101577.66;5062644;28;20033;-51
2023/01/30 00:06:33;;;;;;;60.53;26.48;;;;;;;12.72;100.00;101609.03;5057884;28;20044;-50
2023/01/30 00:08:58;;;;;;;63.38;26.25;;;;;;;12.91;100.00;101561.91;5061443;28;20029;-52
2023/01/30 00:11:24;;;;;;;66.37;27.20;;;;;;;13.59;100.00;101587.47;5061827;28;20047;-52
2023/01/30 00:13:50;;;;;;;61.25;27.42;;;;;;;13.07;100.00;101568.88;5059851;28;20496;-50
2023/01/30 00:16:16;;;;;;;70.32;28.75;;;;;;;12.65;100.00;101581.31;5057582;28;20067;-51
2023/01/30 00:18:42;;;;;;;58.92;28.10;;;;;;;12.83;100.00;101583.53;5056659;28;20063;-53
2023/01/30 00:21:10;;;;;;;74.63;29.40;;;;;;;13.00;100.00;101571.50;5057449;28;20033;-49
2023/01/30 00:23:37;;;;;;;67.43;30.20;;;;;;;13.08;100.00;101583.97;5056231;28;20037;-47
2023/01/30 00:26:04;;;;;;;67.25;27.08;;;;;;;12.90;100.00;101584.41;5059857;28;20060;-52
2023/01/30 00:28:30;;;;;;;58.65;26.42;;;;;;;13.05;100.00;101571.75;5059637;28;20100;-46
2023/01/30 00:30:56;;;;;;;68.80;27.90;;;;;;;13.23;100.00;101565.06;5054876;28;20037;-51
2023/01/30 00:33:24;;;;;;;61.77;27.47;;;;;;;14.22;100.00;101569.56;5057491;28;20029;-49
2023/01/30 00:35:52;;;;;;;55.15;24.83;;;;;;;13.12;100.00;101579.03;5059082;28;20045;-49
2023/01/30 00:38:19;;;;;;;60.97;26.70;;;;;;;13.52;100.00;101568.59;5055193;28;20033;-52
2023/01/30 00:40:45;;;;;;;65.80;27.42;;;;;;;13.36;100.00;101560.81;5057865;28;20026;-54
2023/01/30 00:48:41;;;;;;;57.75;26.60;;;;;;;13.67;100.00;101551.53;5058757;28;20100;-51
2023/01/30 00:51:06;;;;;;;62.57;26.80;;;;;;;12.77;100.00;101542.19;5058334;28;20068;-53
2023/01/30 00:53:32;;;;;;;53.70;24.98;;;;;;;13.33;100.00;101532.50;5055715;28;20039;-53
2023/01/30 00:55:58;;;;;;;56.53;24.53;;;;;;;13.84;100.00;101535.91;5041360;28;20037;-51
2023/01/30 00:58:24;;;;;;;54.08;24.95;;;;;;;13.64;100.00;101522.38;5058118;28;20060;-52
2023/01/30 01:00:51;;;;;;;54.42;26.85;;;;;;;14.19;100.00;101520.50;5057743;28;20046;-53
2023/01/30 01:03:16;;;;;;;45.67;22.80;;;;;;;13.56;100.00;101518.81;5057247;28;20037;-52
2023/01/30 01:05:42;;;;;;;49.65;22.13;;;;;;;14.08;100.00;101518.44;5057549;28;20037;-50
2023/01/30 01:08:09;;;;;;;56.38;24.58;;;;;;;13.99;100.00;101515.09;5054850;28;20044;-50
2023/01/30 01:10:35;;;;;;;48.17;21.20;;;;;;;14.06;100.00;101512.38;5060607;28;20033;-51
2023/01/30 01:13:02;;;;;;;42.95;20.23;;;;;;;14.03;100.00;101507.41;5058677;28;20104;-52
2023/01/30 01:15:28;;;;;;;43.50;19.85;;;;;;;14.55;100.00;101520.38;5058663;28;20049;-52
2023/01/30 01:17:54;;;;;;;38.88;19.20;;;;;;;14.04;100.00;101530.59;5058856;28;20031;-50
2023/01/30 01:20:21;;;;;;;43.60;19.23;;;;;;;14.58;100.00;101518.09;5058420;28;20043;-52
2023/01/30 01:22:51;;;;;;;37.67;18.50;;;;;;;14.03;100.00;101523.56;5055177;28;20061;-50
2023/01/30 01:25:19;;;;;;;35.60;17.70;;;;;;;14.22;100.00;101521.13;5056045;28;20052;-50
2023/01/30 01:27:45;;;;;;;36.97;17.70;;;;;;;14.56;100.00;101501.31;5056441;28;20108;-49
2023/01/30 01:30:11;;;;;;;35.55;15.43;;;;;;;14.22;100.00;101511.22;5061882;28;20033;-52
2023/01/30 01:32:37;;;;;;;33.78;14.93;;;;;;;14.62;100.00;101491.59;5060684;28;20041;-52
2023/01/30 01:35:04;;;;;;;34.25;16.50;;;;;;;14.72;100.00;101497.41;5056764;28;20049;-51
2023/01/30 01:37:30;;;;;;;36.25;16.45;;;;;;;14.62;100.00;101478.16;5054224;28;20037;-51
2023/01/30 01:42:39;;;;;;;38.70;15.80;;;;;;;14.17;100.00;101470.63;5062131;28;20102;-51
2023/01/30 01:45:07;;;;;;;34.07;16.70;;;;;;;14.28;100.00;101479.97;5056422;28;20037;-53
2023/01/30 01:47:34;;;;;;;39.22;17.48;;;;;;;13.80;100.00;101478.19;5060631;28;20056;-53
2023/01/30 01:50:01;;;;;;;36.33;18.40;;;;;;;14.15;100.00;101462.78;5057669;28;20032;-51
2023/01/30 01:52:27;;;;;;;37.55;15.32;;;;;;;14.73;100.00;101471.34;5056187;28;20034;-50
2023/01/30 01:55:02;;;;;;;31.35;15.60;;;;;;;14.89;100.00;101462.84;5052771;28;20101;-49
2023/01/30 01:58:06;;;;;;;30.02;14.90;;;;;;;13.88;100.00;101454.66;5052960;28;20034;-53
2023/01/30 02:00:33;;;;;;;34.78;15.15;;;;;;;14.28;100.00;101428.84;5059560;28;20069;-52
2023/01/30 02:03:02;;;;;;;45.25;15.30;;;;;;;14.32;100.00;101436.31;5054806;28;20045;-50
2023/01/30 02:05:32;;;;;;;29.20;13.95;;;;;;;14.40;100.00;101437.13;5056868;28;20033;-50
2023/01/30 02:08:19;;;;;;;32.80;15.20;;;;;;;14.37;100.00;101426.78;5055829;28;20029;-50
2023/01/30 02:10:59;;;;;;;30.25;13.45;;;;;;;14.18;100.00;101423.88;5052590;28;20311;-53
2023/01/30 02:13:26;;;;;;;37.58;14.68;;;;;;;14.34;100.00;101433.41;5056246;28;20029;-51
2023/01/30 02:15:56;;;;;;;29.05;12.77;;;;;;;14.69;100.00;101430.50;5061129;28;20046;-51
2023/01/30 02:18:22;;;;;;;39.55;13.88;;;;;;;14.12;100.00;101425.53;5064049;28;20054;-53
2023/01/30 02:21:09;;;;;;;35.63;13.43;;;;;;;14.11;100.00;101423.88;5061881;28;20033;-51
2023/01/30 02:24:20;;;;;;;41.83;14.23;;;;;;;15.12;100.00;101447.25;5056400;28;20071;-52
2023/01/30 02:27:16;;;;;;;28.77;12.60;;;;;;;15.05;100.00;101448.09;5060722;28;20025;-53
2023/01/30 02:29:51;;;;;;;27.35;12.77;;;;;;;14.81;100.00;101438.81;5059631;28;20033;-52
2023/01/30 02:32:16;;;;;;;32.60;13.13;;;;;;;14.54;100.00;101467.59;5058265;28;20064;-54
2023/01/30 02:34:46;;;;;;;40.17;14.73;;;;;;;14.52;100.00;101429.25;5061288;28;20053;-52
2023/01/30 02:37:27;;;;;;;40.60;13.07;;;;;;;14.16;100.00;101420.56;5043928;28;20040;-54
2023/01/30 02:40:14;;;;;;;29.67;13.27;;;;;;;14.22;100.00;101435.06;5056485;28;20108;-53
2023/01/30 02:42:45;;;;;;;27.30;13.55;;;;;;;13.88;100.00;101413.47;5065620;28;20054;-54
2023/01/30 02:45:21;;;;;;;33.70;14.13;;;;;;;14.27;100.00;101416.44;5060118;28;20071;-52
2023/01/30 02:48:01;;;;;;;31.52;13.75;;;;;;;14.01;100.00;101401.91;5057248;28;20044;-53
2023/01/30 02:50:38;;;;;;;30.15;13.88;;;;;;;14.10;100.00;101430.28;5057082;28;20025;-56
2023/01/30 02:53:05;;;;;;;35.83;13.20;;;;;;;13.93;100.00;101415.56;5057526;28;20030;-58
2023/01/30 02:55:31;;;;;;;43.40;14.07;;;;;;;14.74;100.00;101417.28;5057921;28;20037;-58
2023/01/30 02:57:58;;;;;;;36.03;13.60;;;;;;;14.39;100.00;101408.56;5060842;28;20059;-59
2023/01/30 03:00:54;;;;;;;34.15;13.75;;;;;;;13.79;100.00;101412.03;5057356;28;20041;-58
2023/01/30 03:03:43;;;;;;;37.53;14.45;;;;;;;13.99;100.00;101406.69;5059881;28;20045;-58
2023/01/30 03:06:14;;;;;;;24.13;11.07;;;;;;;13.93;100.00;101402.94;5060281;28;20033;-57
2023/01/30 03:09:05;;;;;;;33.28;12.57;;;;;;;13.83;100.00;101402.50;5059892;28;20262;-57
2023/01/30 03:11:47;;;;;;;29.35;11.65;;;;;;;13.89;100.00;101388.25;5055297;28;20033;-58
2023/01/30 03:14:33;;;;;;;34.30;12.40;;;;;;;14.54;100.00;101389.53;5062865;28;20103;-57
2023/01/30 03:17:01;;;;;;;33.50;12.52;;;;;;;14.40;100.00;101384.16;5057062;28;20040;-54
2023/01/30 03:19:28;;;;;;;35.95;11.02;;;;;;;14.65;100.00;101390.75;5053957;28;20037;-57
2023/01/30 03:21:53;;;;;;;28.33;10.93;;;;;;;14.76;100.00;101393.69;5058254;28;20044;-56
2023/01/30 03:24:19;;;;;;;29.98;12.98;;;;;;;13.64;100.00;101378.06;5061716;28;20056;-58
2023/01/30 03:27:01;;;;;;;29.73;11.70;;;;;;;14.19;100.00;101391.41;5058372;28;20029;-57
2023/01/30 03:29:27;;;;;;;27.25;10.32;;;;;;;13.99;100.00;101371.72;5056985;28;20044;-56
2023/01/30 03:31:53;;;;;;;24.85;10.60;;;;;;;14.44;100.00;101369.25;5061724;28;20033;-59
2023/01/30 03:34:19;;;;;;;21.80;10.10;;;;;;;14.69;100.00;101373.16;5061345;28;20067;-59
2023/01/30 03:36:46;;;;;;;37.60;11.30;;;;;;;14.34;100.00;101374.22;5058258;28;20042;-60
2023/01/30 03:39:12;;;;;;;23.75;9.85;;;;;;;14.08;100.00;101364.28;5057172;28;20029;-57
2023/01/30 03:41:38;;;;;;;34.95;11.30;;;;;;;14.68;100.00;101379.59;5059484;28;20029;-56
2023/01/30 03:44:04;;;;;;;24.85;11.63;;;;;;;14.40;100.00;101377.94;5057456;28;20035;-57
2023/01/30 03:46:30;;;;;;;34.38;11.93;;;;;;;13.86;100.00;101380.59;5058042;28;20064;-56
2023/01/30 03:48:57;;;;;;;29.65;11.32;;;;;;;13.76;100.00;101386.38;5062201;28;20083;-56
2023/01/30 03:51:23;;;;;;;36.65;11.50;;;;;;;14.03;100.00;101394.47;5057073;28;20056;-55
2023/01/30 03:53:48;;;;;;;37.08;10.43;;;;;;;13.63;100.00;101414.03;5059991;28;20048;-54
2023/01/30 03:56:14;;;;;;;37.30;10.43;;;;;;;14.39;100.00;101371.75;5053393;28;20051;-57
2023/01/30 03:58:39;;;;;;;46.13;11.32;;;;;;;14.38;100.00;101375.47;5056135;28;20037;-56
2023/01/30 04:01:17;;;;;;;31.63;11.50;;;;;;;14.79;100.00;101362.81;5056598;28;20044;-57
2023/01/30 04:03:42;;;;;;;25.17;10.30;;;;;;;14.36;100.00;101374.84;5061237;28;20029;-58
2023/01/30 04:06:07;;;;;;;27.03;10.80;;;;;;;14.42;100.00;101389.34;5058307;28;20044;-58
2023/01/30 04:08:33;;;;;;;33.58;10.88;;;;;;;14.62;100.00;101387.44;5061298;28;20282;-56
2023/01/30 04:10:59;;;;;;;32.17;11.73;;;;;;;14.47;100.00;101379.59;5057232;28;20029;-58
2023/01/30 04:13:25;;;;;;;44.13;11.80;;;;;;;14.43;100.00;101362.22;5059689;28;20040;-57
2023/01/30 04:15:50;;;;;;;20.97;8.63;;;;;;;14.37;100.00;101371.13;5058737;28;20039;-56
2023/01/30 04:18:39;;;;;;;41.95;12.43;;;;;;;14.26;100.00;101363.66;5056452;28;20089;-58
2023/01/30 04:21:12;;;;;;;28.95;10.98;;;;;;;14.42;100.00;101371.31;5055164;28;20093;-54
2023/01/30 04:23:38;;;;;;;32.97;11.73;;;;;;;14.58;100.00;101364.66;5058188;28;20097;-54
2023/01/30 04:26:06;;;;;;;31.75;11.52;;;;;;;15.22;100.00;101372.19;5057377;28;20041;-54
2023/01/30 04:28:35;;;;;;;35.22;10.18;;;;;;;14.53;100.00;101369.03;5059513;28;20033;-54
2023/01/30 04:31:02;;;;;;;41.80;12.02;;;;;;;14.99;100.00;101375.41;5056818;28;20051;-53
2023/01/30 04:33:40;;;;;;;28.30;10.20;;;;;;;15.14;100.00;101384.06;5056998;28;20101;-53
2023/01/30 04:36:08;;;;;;;;;;;;;;;14.32;100.00;101370.94;5057848;28;20064;-55
2023/01/30 04:38:34;;;;;;;31.92;9.90;;;;;;;14.98;100.00;101377.25;5055033;28;19912;-54
2023/01/30 04:41:00;;;;;;;;;;;;;;;14.61;100.00;101391.16;5059324;28;20038;-55
2023/01/30 04:43:29;;;;;;;35.05;10.65;;;;;;;14.90;100.00;101378.31;5056794;28;19913;-54
2023/01/30 04:46:22;;;;;;;39.15;10.82;;;;;;;15.02;100.00;101383.03;5054877;28;20033;-52
2023/01/30 04:48:47;;;;;;;32.20;10.57;;;;;;;14.75;100.00;101381.22;5058143;28;20080;-55
2023/01/30 04:51:13;;;;;;;30.90;9.13;;;;;;;14.51;100.00;101379.16;5056554;28;20021;-56
2023/01/30 04:53:39;;;;;;;34.92;10.60;;;;;;;15.06;100.00;101384.28;5056938;28;20035;-53
2023/01/30 04:56:06;;;;;;;28.92;9.93;;;;;;;14.65;100.00;101375.44;5060209;28;20032;-52
2023/01/30 04:58:31;;;;;;;32.25;8.98;;;;;;;15.48;100.00;101394.69;5055264;28;20097;-55
2023/01/30 05:01:15;;;;;;;39.93;10.50;;;;;;;15.73;100.00;101391.25;5058973;28;20041;-54
2023/01/30 05:03:41;;;;;;;33.95;10.60;;;;;;;14.91;100.00;101379.13;5055017;28;20021;-53
2023/01/30 05:06:07;;;;;;;31.92;8.77;;;;;;;15.35;100.00;101387.50;5057284;28;20045;-53
2023/01/30 05:08:33;;;;;;;36.63;8.83;;;;;;;15.12;100.00;101377.22;5054308;28;20026;-53
2023/01/30 05:10:58;;;;;;;30.13;8.50;;;;;;;15.83;100.00;101382.69;5063358;28;20120;-54
2023/01/30 05:13:24;;;;;;;32.17;8.60;;;;;;;15.30;100.00;101377.34;5057087;28;20270;-53
2023/01/30 05:15:49;;;;;;;23.70;7.83;;;;;;;16.16;100.00;101377.09;5056542;28;20101;-53
2023/01/30 05:18:15;;;;;;;24.80;7.50;;;;;;;14.77;100.00;101386.41;5057952;28;20081;-56
2023/01/30 05:20:40;;;;;;;31.80;8.37;;;;;;;16.00;100.00;101373.03;5058746;28;20282;-53
2023/01/30 05:23:06;;;;;;;32.00;7.93;;;;;;;15.03;100.00;101373.94;5066402;28;20045;-52
2023/01/30 05:25:31;;;;;;;34.78;7.03;;;;;;;15.14;100.00;101385.91;5060791;28;20112;-52
2023/01/30 05:27:57;;;;;;;32.47;6.47;;;;;;;15.26;100.00;101378.00;5058248;28;20163;-52
2023/01/30 05:30:22;;;;;;;32.47;6.30;;;;;;;15.72;100.00;101384.22;5062555;28;20061;-54
2023/01/30 05:32:48;;;;;;;24.93;6.13;;;;;;;15.76;100.00;101374.63;5059921;28;20037;-54
2023/01/30 05:35:13;;;;;;;30.63;5.13;;;;;;;15.10;100.00;101379.28;5055498;28;20037;-52
2023/01/30 05:37:39;;;;;;;22.20;5.25;;;;;;;15.26;100.00;101373.44;5054652;28;20022;-54
2023/01/30 05:40:05;;;;;;;24.03;5.10;;;;;;;14.48;100.00;101377.75;5056466;28;20034;-54
2023/01/30 05:42:31;;;;;;;15.88;4.78;;;;;;;15.29;100.00;101391.03;5066524;28;20118;-54
2023/01/30 05:44:56;;;;;;;18.00;4.67;;;;;;;15.67;100.00;101405.56;5056440;28;20045;-54
2023/01/30 05:47:22;;;;;;;17.00;4.33;;;;;;;15.49;100.00;101407.13;5056476;28;20270;-52
2023/01/30 05:49:47;;;;;;;25.93;4.33;;;;;;;15.26;100.00;101408.47;5058171;28;20105;-55
2023/01/30 05:52:13;;;;;;;21.42;4.28;;;;;;;15.75;100.00;101416.13;5062030;28;20040;-51
2023/01/30 05:54:38;;;;;;;27.13;4.73;;;;;;;15.15;100.00;101433.34;5058681;28;20042;-50
2023/01/30 05:57:03;;;;;;;16.87;4.00;;;;;;;15.59;100.00;101423.66;5066083;28;20068;-53
2023/01/30 05:59:29;;;;;;;18.73;3.40;;;;;;;14.99;100.00;101415.78;5060979;28;20075;-54
2023/01/30 06:01:55;;;;;;;18.87;3.87;;;;;;;14.95;100.00;101411.88;5061525;28;20068;-51
2023/01/30 06:04:20;;;;;;;18.40;3.20;;;;;;;15.31;100.00;101419.44;5062622;28;20092;-51
2023/01/30 06:06:48;;;;;;;17.35;3.35;;;;;;;15.32;100.00;101406.75;5062110;28;20082;-52
2023/01/30 06:09:14;;;;;;;27.48;4.28;;;;;;;15.40;100.00;101419.19;5058338;28;20040;-55
2023/01/30 06:11:40;;;;;;;34.63;4.10;;;;;;;14.95;100.00;101418.06;5060612;28;20036;-54
2023/01/30 06:14:05;;;;;;;27.67;4.50;;;;;;;14.38;100.00;101417.69;5060140;28;20041;-53
2023/01/30 06:16:31;;;;;;;25.33;4.28;;;;;;;14.89;100.00;101422.44;5061689;28;20037;-52
2023/01/30 06:18:56;;;;;;;22.80;4.00;;;;;;;15.42;100.00;101428.72;5062520;28;20071;-51
2023/01/30 06:21:22;;;;;;;18.73;4.93;;;;;;;15.24;100.00;101424.03;5065857;28;20044;-52
2023/01/30 06:23:47;;;;;;;23.13;3.10;;;;;;;15.05;100.00;101425.72;5062419;28;20313;-53
2023/01/30 06:26:13;;;;;;;17.93;3.20;;;;;;;14.62;100.00;101419.75;5061928;28;20037;-52
2023/01/30 06:28:38;;;;;;;20.70;3.97;;;;;;;15.23;100.00;101435.84;5059630;28;20036;-51
2023/01/30 06:31:07;;;;;;;17.03;3.43;;;;;;;14.94;100.00;101445.22;5058605;28;20095;-53
2023/01/30 06:33:33;;;;;;;22.55;3.47;;;;;;;14.62;100.00;101451.22;5059515;28;20025;-54
2023/01/30 06:35:59;;;;;;;26.55;3.40;;;;;;;14.73;100.00;101436.34;5060394;28;20112;-50
2023/01/30 06:38:25;;;;;;;26.87;3.97;;;;;;;14.19;100.00;101439.81;5059179;28;20033;-55
2023/01/30 06:40:50;;;;;;;19.37;4.60;;;;;;;14.23;100.00;101442.09;5062940;28;20037;-52
2023/01/30 06:43:16;;;;;;;31.20;3.33;;;;;;;15.34;100.00;101427.09;5061308;28;20262;-52
2023/01/30 06:45:42;;;;;;;24.17;3.45;;;;;;;14.31;100.00;101440.03;5061691;28;20051;-50
2023/01/30 06:48:08;;;;;;;28.65;4.85;;;;;;;14.48;100.00;101447.72;5062365;28;20075;-54
2023/01/30 06:50:34;;;;;;;32.65;3.92;;;;;;;14.45;100.00;101434.66;5061318;28;20041;-52
2023/01/30 06:53:01;;;;;;;;;;;;;;;14.19;100.00;101436.31;5058482;28;20046;-52
2023/01/30 06:55:27;;;;;;;29.80;4.05;;;;;;;14.38;100.00;101442.72;5054579;28;20307;-53
2023/01/30 06:58:06;;;;;;;21.95;3.83;;;;;;;14.52;100.00;101434.66;5054879;28;20033;-49
2023/01/30 07:00:33;;;;;;;25.73;3.40;;;;;;;14.80;100.00;101447.91;5059379;28;20060;-52
2023/01/30 07:02:59;;;;;;;21.40;3.28;;;;;;;14.17;100.00;101452.63;5059393;28;20331;-52
2023/01/30 07:05:25;;;;;;;19.98;3.90;;;;;;;14.28;100.00;101453.91;5056833;28;20060;-52
2023/01/30 07:07:52;;;;;;;21.65;3.53;;;;;;;14.23;100.00;101455.53;5057924;28;20038;-50
2023/01/30 07:10:18;;;;;;;32.33;4.18;;;;;;;14.38;100.00;101456.19;5062109;28;20085;-54
2023/01/30 07:12:45;;;;;;;15.02;3.47;;;;;;;14.15;100.00;101453.88;5056922;28;20044;-53
2023/01/30 07:15:10;;;;;;;24.15;4.43;;;;;;;13.93;100.00;101456.72;5060853;28;20033;-52
2023/01/30 07:17:39;;;;;;;19.50;3.10;;;;;;;14.13;100.00;101459.47;5057957;28;20049;-50
2023/01/30 07:20:05;;;;;;;25.25;3.58;;;;;;;14.20;100.00;101454.09;5058821;28;20038;-52
2023/01/30 07:22:31;;;;;;;15.90;3.45;;;;;;;14.47;100.00;101463.00;5060573;28;20055;-49
2023/01/30 07:24:56;;;;;;;18.40;3.73;;;;;;;13.96;100.00;101482.38;5059137;28;20135;-53
2023/01/30 07:27:21;;;;;;;23.93;3.87;;;;;;;14.07;100.00;101491.72;5054916;28;20031;-51
2023/01/30 07:29:47;;;;;;;37.17;5.45;;;;;;;13.98;100.00;101497.28;5063727;28;20029;-51
2023/01/30 07:32:15;;;;;;;37.07;5.47;;;;;;;14.00;100.00;101491.69;5061632;28;20067;-55
2023/01/30 07:34:41;;;;;;;33.58;4.72;;;;;;;14.13;100.00;101501.66;5058866;28;20304;-54
2023/01/30 07:37:07;;;;;;;32.20;6.37;;;;;;;13.77;100.00;101480.25;5059691;28;20057;-49
2023/01/30 07:39:32;;;;;;;33.17;4.77;;;;;;;14.11;100.00;101498.34;5063056;28;20129;-52
2023/01/30 07:42:02;;;;;;;18.52;4.10;;;;;;;14.23;100.00;101495.88;5059237;28;20080;-54
2023/01/30 07:44:28;;;;;;;35.00;6.40;;;;;;;14.16;100.00;101502.09;5058804;28;20034;-55
2023/01/30 07:46:53;;;;;;;16.53;3.13;;;;;;;14.44;100.00;101493.03;5056813;28;20129;-54
2023/01/30 07:49:19;;;;;;;23.53;3.70;;;;;;;14.35;100.00;101496.97;5056779;28;20339;-53
2023/01/30 07:51:44;;;;;;;30.90;4.30;;;;;;;14.51;100.00;101505.66;5057306;28;20041;-52
2023/01/30 07:54:10;;;;;;;21.20;3.70;;;;;;;14.23;100.00;101509.34;5060165;28;20035;-53
2023/01/30 07:56:35;;;;;;;31.67;4.97;;;;;;;13.83;100.00;101505.47;5061191;28;20123;-54
2023/01/30 07:59:01;;;;;;;27.92;2.92;;;;;;;14.19;100.00;101499.00;5060069;28;20033;-54
2023/01/30 08:01:27;;;;;;;30.02;4.20;;;;;;;14.29;100.00;101503.13;5057043;28;20043;-55
2023/01/30 08:03:53;;;;;;;28.03;5.43;;;;;;;14.44;100.00;101492.22;5064298;28;20034;-54
2023/01/30 08:06:18;;;;;;;26.70;3.20;;;;;;;14.04;100.00;101511.75;5057388;28;20040;-53
2023/01/30 08:08:45;;;;;;;15.73;3.03;;;;;;;13.90;100.00;101506.34;5057820;28;20068;-54
2023/01/30 08:11:10;;;;;;;23.73;3.47;;;;;;;13.77;100.00;101519.75;5058632;28;20038;-56
2023/01/30 08:13:36;;;;;;;17.20;4.72;;;;;;;14.10;100.00;101512.81;5056651;28;20068;-53
2023/01/30 08:16:03;;;;;;;23.23;5.57;;;;;;;14.38;100.00;101519.91;5058842;28;20033;-54
2023/01/30 08:18:31;;;;;;;20.75;3.38;;;;;;;14.67;100.00;101516.03;5058443;28;20037;-54
2023/01/30 08:21:01;;;;;;;24.95;3.55;;;;;;;14.45;100.00;101510.84;5060959;28;20033;-52
2023/01/30 08:23:27;;;;;;;26.92;4.70;;;;;;;14.22;100.00;101513.91;5059447;28;20033;-53
2023/01/30 08:25:58;;;;;;;21.65;2.67;;;;;;;14.64;100.00;101497.59;5061755;28;20079;-54
2023/01/30 08:28:24;;;;;;;22.80;3.70;;;;;;;14.28;100.00;101526.53;5056269;28;20029;-56
2023/01/30 08:30:52;;;;;;;21.15;5.20;;;;;;;14.69;95.52;101527.41;5056095;28;20041;-56
2023/01/30 08:33:17;;;;;;;23.08;3.90;;;;;;;14.45;100.00;101526.97;5056198;28;20044;-54
2023/01/30 08:35:43;;;;;;;30.33;4.32;;;;;;;14.27;100.00;101534.78;5057337;28;20064;-56
2023/01/30 08:38:08;;;;;;;18.08;2.92;;;;;;;14.57;99.43;101529.91;5057661;28;20033;-54
2023/01/30 08:40:35;;;;;;;15.90;3.23;;;;;;;14.48;99.46;101531.94;5063582;28;20029;-56
2023/01/30 08:43:00;;;;;;;15.75;3.10;;;;;;;14.62;97.69;101543.56;5056244;28;20346;-55
2023/01/30 08:45:26;;;;;;;22.43;3.27;;;;;;;14.97;94.78;101542.56;5058012;28;20061;-53
2023/01/30 08:47:52;;;;;;;17.63;2.83;;;;;;;15.37;95.55;101555.19;5056288;28;20281;-52
2023/01/30 08:50:17;;;;;;;29.00;3.83;;;;;;;14.70;97.24;101561.38;5055799;28;20100;-52
2023/01/30 08:52:43;;;;;;;33.00;5.50;;;;;;;15.02;97.40;101564.34;5057766;28;20270;-54
2023/01/30 08:55:09;;;;;;;19.77;3.80;;;;;;;14.87;97.13;101553.75;5061985;28;20040;-55
2023/01/30 08:57:35;;;;;;;11.93;2.35;;;;;;;14.11;95.83;101558.38;5061569;28;20040;-48
2023/01/30 09:00:01;;;;;;;23.55;4.05;;;;;;;14.66;99.38;101564.72;5062444;28;20037;-51
2023/01/30 09:02:27;;;;;;;17.10;2.92;;;;;;;14.97;95.18;101572.19;5057226;28;20079;-52
2023/01/30 09:04:52;;;;;;;26.10;3.70;;;;;;;15.68;93.00;101583.31;5057019;28;20033;-51
2023/01/30 09:07:18;;;;;;;13.63;2.50;;;;;;;15.58;90.41;101572.97;5055442;28;20056;-53
2023/01/30 09:09:44;;;;;;;21.13;2.90;;;;;;;15.71;93.19;101587.47;5058054;28;20021;-52
2023/01/30 09:12:09;;;;;;;8.77;2.50;;;;;;;15.80;92.88;101586.19;5058110;28;20044;-54
2023/01/30 09:14:34;;;;;;;16.03;3.70;;;;;;;15.40;93.48;101592.50;5059946;28;20036;-51
2023/01/30 09:17:00;;;;;;;22.52;3.95;;;;;;;14.82;94.93;101582.34;5056852;28;20041;-48
2023/01/30 09:19:27;;;;;;;23.53;3.10;;;;;;;14.98;94.83;101581.13;5059050;28;20093;-55
2023/01/30 09:21:54;;;;;;;17.38;3.45;;;;;;;15.27;94.58;101581.72;5059050;28;20047;-52
2023/01/30 09:24:25;;;;;;;18.02;3.30;;;;;;;15.19;92.54;101570.13;5054795;28;20033;-54
2023/01/30 09:26:51;;;;;;;18.67;3.10;;;;;;;15.72;92.06;101591.81;5057426;28;20085;-54
2023/01/30 09:29:18;;;;;;;21.45;2.63;;;;;;;15.76;89.69;101601.16;5060638;28;20048;-54
2023/01/30 09:31:45;;;;;;;19.02;3.20;;;;;;;15.56;90.17;101601.16;5060783;28;20030;-54
2023/01/30 09:34:10;;;;;;;28.30;3.50;;;;;;;14.79;91.78;101599.75;5064338;28;20113;-50
2023/01/30 09:36:36;;;;;;;23.70;3.73;;;;;;;15.28;89.13;101594.16;5060318;28;20054;-50
2023/01/30 09:39:01;;;;;;;19.73;3.42;;;;;;;15.66;90.27;101598.03;5061050;28;20037;-52
2023/01/30 09:41:51;;;;;;;18.80;3.08;;;;;;;15.43;90.15;101602.88;5065110;28;20021;-51
2023/01/30 09:44:39;;;;;;;17.80;3.63;;;;;;;15.44;92.00;101601.81;5061056;28;20043;-56
2023/01/30 09:47:11;;;;;;;21.52;4.55;;;;;;;15.27;92.26;101614.06;5063411;28;20060;-51
2023/01/30 09:50:05;;;;;;;18.42;3.08;;;;;;;15.34;90.50;101626.50;5058163;28;20097;-48
2023/01/30 09:52:54;;;;;;;9.93;2.88;;;;;;;16.36;89.31;101627.09;5061982;28;20035;-50
2023/01/30 09:55:23;;;;;;;23.67;3.08;;;;;;;16.03;87.78;101619.97;5064974;28;20063;-51
2023/01/30 09:57:50;;;;;;;16.58;3.00;;;;;;;16.51;87.37;101639.50;5059407;28;20061;-52
2023/01/30 10:00:27;;;;;;;17.83;2.75;;;;;;;16.03;84.78;101631.59;5062340;28;20044;-49
2023/01/30 10:03:03;;;;;;;15.85;3.10;;;;;;;15.49;88.13;101617.38;5060214;28;20045;-51
2023/01/30 10:05:57;;;;;;;34.50;3.90;;;;;;;16.26;87.41;101646.47;5059435;28;20056;-51
2023/01/30 10:08:48;;;;;;;16.10;3.10;;;;;;;15.74;86.26;101654.47;5059531;28;20088;-53
2023/01/30 10:11:17;;;;;;;23.40;2.80;;;;;;;15.76;86.49;101650.50;5062558;28;20032;-55
2023/01/30 10:14:21;;;;;;;14.83;2.63;;;;;;;16.02;86.80;101642.59;5060000;28;20275;-52
2023/01/30 10:17:05;;;;;;;21.07;3.20;;;;;;;15.93;85.91;101642.00;5038269;28;20318;-54
2023/01/30 10:19:50;;;;;;;19.33;3.30;;;;;;;15.37;88.55;101643.28;5040813;28;20285;-52
2023/01/30 10:23:11;;;;;;;18.42;3.38;;;;;;;15.81;87.78;101655.28;5064527;28;20308;-51
2023/01/30 10:25:51;;;;;;;18.40;2.65;;;;;;;15.86;87.42;101658.16;5020118;28;20065;-52
2023/01/30 10:28:37;;;;;;;18.23;2.87;;;;;;;17.16;83.01;101669.03;5056293;28;20036;-52
2023/01/30 10:31:10;;;;;;;21.03;3.57;;;;;;;16.48;83.56;101663.19;5059253;28;20266;-52
2023/01/30 10:33:46;;;;;;;25.20;4.43;;;;;;;16.20;83.65;101667.03;5058054;28;20278;-52
2023/01/30 10:36:45;;;;;;;14.02;2.95;;;;;;;15.95;87.64;101671.47;5057713;28;20274;-50
2023/01/30 10:39:34;;;;;;;20.40;3.40;;;;;;;16.07;87.51;101661.66;5064911;28;20056;-50
2023/01/30 10:42:09;;;;;;;29.87;4.20;;;;;;;16.00;86.84;101658.16;5058761;28;20282;-51
2023/01/30 10:44:34;;;;;;;23.30;4.80;;;;;;;15.39;87.92;101652.00;5058831;28;20270;-52
2023/01/30 10:47:21;;;;;;;23.53;3.30;;;;;;;15.99;85.90;101668.13;5059561;28;20254;-53
2023/01/30 10:49:53;;;;;;;28.15;4.93;;;;;;;16.82;82.41;101662.16;5060004;28;20067;-49
2023/01/30 10:52:26;;;;;;;27.80;3.97;;;;;;;17.26;79.21;101667.72;5057718;28;20060;-54
2023/01/30 10:55:28;;;;;;;17.97;3.27;;;;;;;18.14;78.21;101665.03;5061359;28;20270;-50
2023/01/30 10:58:06;;;;;;;19.10;4.10;;;;;;;18.38;74.36;101676.00;5057365;28;20278;-51
2023/01/30 11:00:41;;;;;;;18.73;4.17;;;;;;;18.40;74.65;101666.59;5058511;28;20294;-52
2023/01/30 11:03:45;;;;;;;16.93;3.47;;;;;;;18.78;73.43;101684.41;5059649;28;20348;-51
2023/01/30 11:06:17;;;;;;;16.00;3.03;;;;;;;17.73;77.38;101686.22;5056045;28;20559;-53
2023/01/30 11:08:44;;;;;;;17.47;2.67;;;;;;;17.22;76.29;101678.13;5062242;28;20269;-52
2023/01/30 11:11:40;;;;;;;18.30;4.25;;;;;;;16.98;76.59;101667.09;5056680;28;20346;-52
2023/01/30 11:14:10;;;;;;;27.03;4.00;;;;;;;17.01;77.96;101680.16;5055730;28;20041;-52
2023/01/30 11:16:57;;;;;;;22.50;3.90;;;;;;;16.38;77.64;101662.81;5058966;28;20305;-50
2023/01/30 11:19:30;;;;;;;23.60;4.43;;;;;;;17.20;76.93;101681.09;5060619;28;20274;-48
2023/01/30 11:22:01;;;;;;;21.13;4.07;;;;;;;16.83;79.81;101671.91;5057554;28;20285;-50
2023/01/30 11:24:30;;;;;;;25.77;3.87;;;;;;;17.10;77.50;101666.41;5058703;28;20342;-51
2023/01/30 11:27:10;;;;;;;22.43;5.07;;;;;;;17.26;76.70;101673.13;5058589;28;20267;-53
2023/01/30 11:29:38;;;;;;;19.70;3.87;;;;;;;18.74;76.82;101675.09;5057135;28;20267;-52
2023/01/30 11:32:11;;;;;;;21.33;3.93;;;;;;;20.14;66.65;101670.31;5058524;28;20278;-54